Time;durP1;ratioP1;P1;durP2;ratioP2;P2;SDS_P1;SDS_P2;PMS_P1;PMS_P2;Temp;Humidity;BMP_temperature;BMP_pressure;BME280_temperature;BME280_humidity;BME280_pressure;Samples;Min_cycle;Max_cycle;Signal;HPM_P1;HPM_P2
2022/01/23 00:01:40;;;;;;;14.98;8.10;;;0.70;2201.60;;;;;;5088201;28;20047;-52
2022/01/23 00:04:06;;;;;;;33.00;16.70;;;0.80;2201.60;;;;;;5088121;28;20048;-53
2022/01/23 00:06:32;;;;;;;122.15;55.22;;;0.80;2201.60;;;;;;5090332;28;20036;-54
2022/01/23 00:08:58;;;;;;;90.60;43.05;;;0.80;2201.60;;;;;;5090094;28;20048;-52
2022/01/23 00:11:26;;;;;;;37.15;18.25;;;0.80;2201.60;;;;;;5089339;28;20604;-54
2022/01/23 00:19:05;;;;;;;15.55;8.82;;;0.70;2201.60;;;;;;5088623;28;20427;-53
2022/01/23 00:21:33;;;;;;;36.90;15.93;;;0.40;2201.60;;;;;;5089169;28;20036;-52
2022/01/23 00:31:53;;;;;;;13.80;7.75;;;0.30;2201.60;;;;;;5092398;28;20043;-54
2022/01/23 00:34:19;;;;;;;46.60;20.02;;;0.10;2201.60;;;;;;5091751;28;20055;-54
2022/01/23 00:36:45;;;;;;;12.70;5.85;;;0.10;2201.60;;;;;;5091936;28;20024;-52
2022/01/23 00:39:11;;;;;;;28.88;12.70;;;0.10;2201.60;;;;;;5091612;28;20035;-59
2022/01/23 00:41:36;;;;;;;26.70;12.88;;;0.20;2201.60;;;;;;5092059;28;20379;-61
2022/01/23 00:44:03;;;;;;;12.32;6.85;;;0.20;2201.60;;;;;;5091628;28;20028;-54
2022/01/23 00:46:34;;;;;;;14.95;7.50;;;0.00;2201.60;;;;;;5091799;28;20032;-61
2022/01/23 00:51:28;;;;;;;35.70;17.20;;;0.00;2201.60;;;;;;5091596;28;20048;-61
2022/01/23 00:53:55;;;;;;;42.78;19.05;;;0.00;2201.60;;;;;;5091284;28;20107;-56
2022/01/23 00:56:21;;;;;;;13.55;8.02;;;12.90;2201.60;;;;;;5091631;28;20028;-56
2022/01/23 00:58:46;;;;;;;14.52;7.35;;;12.90;2201.60;;;;;;5091398;28;20028;-54
2022/01/23 01:01:13;;;;;;;8.93;5.45;;;13.00;2201.60;;;;;;5091301;28;20051;-54
2022/01/23 01:03:39;;;;;;;16.60;9.43;;;13.00;2201.60;;;;;;5090908;28;20043;-54
2022/01/23 01:06:05;;;;;;;17.75;9.38;;;13.00;2201.60;;;;;;5091210;28;20036;-53
2022/01/23 01:08:31;;;;;;;19.55;9.93;;;12.90;2201.60;;;;;;5091296;28;20133;-52
2022/01/23 01:13:32;;;;;;;18.92;11.18;;;13.10;2201.60;;;;;;5091370;28;20024;-61
2022/01/23 01:16:23;;;;;;;13.00;6.60;;;13.20;2201.60;;;;;;5091359;28;20385;-54
2022/01/23 01:32:46;;;;;;;9.65;5.47;;;13.20;2201.60;;;;;;5048313;28;20040;-55
2022/01/23 01:35:21;;;;;;;14.70;7.45;;;13.20;2201.60;;;;;;5048314;28;20040;-54
2022/01/23 01:37:47;;;;;;;8.10;4.40;;;13.30;2201.60;;;;;;5048277;28;20036;-54
2022/01/23 01:40:14;;;;;;;12.45;6.63;;;13.40;2201.60;;;;;;5048200;28;20068;-54
2022/01/23 01:42:40;;;;;;;13.70;6.90;;;13.40;2201.60;;;;;;5048235;28;20517;-54
2022/01/23 01:45:06;;;;;;;17.48;7.90;;;13.30;2201.60;;;;;;5048187;28;20084;-54
2022/01/23 01:47:32;;;;;;;12.32;6.57;;;13.20;2201.60;;;;;;5048240;28;20112;-54
2022/01/23 01:49:58;;;;;;;13.65;8.85;;;13.20;2201.60;;;;;;5047930;28;20100;-54
2022/01/23 01:52:24;;;;;;;9.68;5.45;;;13.30;2201.60;;;;;;5047912;28;20037;-54
2022/01/23 01:54:59;;;;;;;8.20;5.32;;;13.30;2201.60;;;;;;5047929;28;20072;-54
2022/01/23 01:57:29;;;;;;;11.93;6.53;;;13.40;2201.60;;;;;;5049216;28;20103;-62
2022/01/23 02:00:13;;;;;;;22.35;11.50;;;13.40;2201.60;;;;;;5090460;28;20039;-55
2022/01/23 02:10:38;;;;;;;10.32;6.07;;;13.40;2201.60;;;;;;5090633;28;20043;-54
2022/01/23 02:13:09;;;;;;;9.50;5.05;;;13.40;2201.60;;;;;;5090351;28;20469;-56
2022/01/23 02:15:59;;;;;;;13.52;5.05;;;13.40;2201.60;;;;;;5090200;28;20020;-55
2022/01/23 02:24:04;;;;;;;12.60;6.57;;;13.70;2201.60;;;;;;5090189;28;20035;-53
2022/01/23 02:56:48;;;;;;;8.48;4.78;;;13.70;2201.60;;;;;;5089966;28;20028;-54
2022/01/23 02:59:26;;;;;;;10.93;4.80;;;38.40;2201.60;;;;;;5089866;28;20089;-62
2022/01/23 03:04:39;;;;;;;7.93;4.53;;;13.70;2201.60;;;;;;5093625;28;20082;-59
2022/01/23 03:09:55;;;;;;;12.07;4.80;;;38.40;2201.60;;;;;;5093444;28;20065;-55
2022/01/23 03:15:19;;;;;;;8.82;4.95;;;38.40;2201.60;;;;;;5093638;28;20436;-55
2022/01/23 03:26:16;;;;;;;10.52;6.57;;;38.40;2201.60;;;;;;5093261;28;20171;-52
2022/01/23 03:29:03;;;;;;;9.95;5.57;;;13.70;2201.60;;;;;;5093315;28;20385;-53
2022/01/23 03:31:33;;;;;;;7.45;4.13;;;13.70;2201.60;;;;;;5093185;28;20043;-54
2022/01/23 03:33:59;;;;;;;14.70;7.93;;;38.50;2201.60;;;;;;5093269;28;20028;-55
2022/01/23 03:36:25;;;;;;;18.90;9.38;;;38.40;2201.60;;;;;;5093299;28;20035;-55
2022/01/23 03:38:51;;;;;;;11.68;6.30;;;38.50;2201.60;;;;;;5093095;28;20028;-62
2022/01/23 03:41:17;;;;;;;9.50;5.20;;;38.50;2201.60;;;;;;5093045;28;20122;-55
2022/01/23 03:43:43;;;;;;;16.08;10.27;;;13.50;2201.60;;;;;;5092663;28;20032;-53
2022/01/23 03:49:31;;;;;;;14.20;6.45;;;38.50;2201.60;;;;;;5050507;28;20032;-54
2022/01/23 03:52:05;;;;;;;14.25;8.30;;;38.50;2201.60;;;;;;5050421;28;20526;-54
2022/01/23 03:54:32;;;;;;;10.63;5.50;;;38.50;2201.60;;;;;;5050231;28;20475;-54
2022/01/23 03:56:59;;;;;;;9.20;5.20;;;38.50;2201.60;;;;;;5050503;28;20115;-61
2022/01/23 03:59:26;;;;;;;9.20;5.50;;;38.50;2201.60;;;;;;5050667;28;20032;-54
2022/01/23 04:01:52;;;;;;;12.13;6.95;;;38.50;2201.60;;;;;;5050005;28;20471;-56
2022/01/23 04:06:49;;;;;;;11.57;7.38;;;38.50;2201.60;;;;;;5049940;28;20401;-54
2022/01/23 04:09:15;;;;;;;12.70;5.88;;;38.50;2201.60;;;;;;5050052;28;20029;-53
2022/01/23 04:11:41;;;;;;;14.77;6.95;;;38.40;2201.60;;;;;;5049994;28;20025;-54
2022/01/23 04:14:10;;;;;;;17.77;9.57;;;38.50;2201.60;;;;;;5049557;28;20025;-54
2022/01/23 04:45:08;;;;;;;13.50;7.38;;;38.60;2201.60;;;;;;5092243;28;20054;-54
2022/01/23 04:59:46;;;;;;;31.70;15.60;;;38.70;2201.60;;;;;;5091639;28;20070;-55
2022/01/23 05:02:59;;;;;;;16.20;9.73;;;38.70;2201.60;;;;;;5091339;28;20032;-53
2022/01/23 05:05:07;;;;;;;16.48;10.68;;;38.70;2201.60;;;;;;5091330;28;20052;-55
2022/01/23 05:07:34;;;;;;;45.72;19.75;;;38.80;2201.60;;;;;;5091071;28;20024;-57
2022/01/23 05:09:59;;;;;;;28.27;12.32;;;38.80;2201.60;;;;;;5091157;28;20067;-56
2022/01/23 05:12:30;;;;;;;22.83;11.07;;;38.80;2201.60;;;;;;5091481;28;20048;-55
2022/01/23 05:14:57;;;;;;;21.77;11.13;;;38.80;2201.60;;;;;;5091407;28;20052;-58
2022/01/23 05:17:23;;;;;;;27.00;12.05;;;38.80;2201.60;;;;;;5091216;28;20059;-55
2022/01/23 05:19:49;;;;;;;28.33;14.98;;;38.90;2201.60;;;;;;5091250;28;20024;-56
2022/01/23 05:25:03;;;;;;;23.92;13.15;;;38.90;2201.60;;;;;;5090461;28;20147;-56
2022/01/23 05:27:32;;;;;;;21.13;13.25;;;38.90;2201.60;;;;;;5091163;28;20298;-56
2022/01/23 05:29:59;;;;;;;13.75;8.27;;;38.90;2201.60;;;;;;5091004;28;20035;-56
2022/01/23 05:32:34;;;;;;;15.98;8.65;;;38.90;2201.60;;;;;;5090871;28;20027;-55
2022/01/23 05:35:00;;;;;;;20.00;11.02;;;39.00;2201.60;;;;;;5090832;28;20032;-56
2022/01/23 05:37:25;;;;;;;33.53;18.20;;;39.10;2201.60;;;;;;5090800;28;20031;-55
2022/01/23 05:39:51;;;;;;;41.17;23.60;;;39.10;2201.60;;;;;;5091131;28;20024;-55
2022/01/23 05:42:17;;;;;;;29.63;16.48;;;39.00;2201.60;;;;;;5090789;28;20393;-55
2022/01/23 05:44:43;;;;;;;17.25;10.85;;;39.00;2201.60;;;;;;5090518;28;20188;-55
2022/01/23 05:47:11;;;;;;;13.20;8.23;;;38.90;2201.60;;;;;;5090766;28;20022;-55
2022/01/23 05:49:37;;;;;;;17.20;8.70;;;38.90;2201.60;;;;;;5089392;28;20028;-55
2022/01/23 05:52:05;;;;;;;20.75;11.88;;;38.80;2201.60;;;;;;5090452;28;20419;-54
2022/01/23 05:54:31;;;;;;;22.52;12.85;;;38.80;2201.60;;;;;;5090349;28;20016;-55
2022/01/23 05:56:57;;;;;;;19.42;9.95;;;38.70;2201.60;;;;;;5090668;28;20031;-55
2022/01/23 05:59:22;;;;;;;21.35;11.98;;;38.50;2201.60;;;;;;5090420;28;20051;-55
2022/01/23 06:01:51;;;;;;;15.57;7.50;;;38.40;2201.60;;;;;;5090499;28;20496;-56
2022/01/23 06:04:20;;;;;;;23.67;10.52;;;13.70;2201.60;;;;;;5090098;28;20439;-55
2022/01/23 06:06:48;;;;;;;20.63;12.80;;;13.70;2201.60;;;;;;5090417;28;20032;-55
2022/01/23 06:09:14;;;;;;;13.48;7.10;;;13.70;2201.60;;;;;;5090142;28;20055;-55
2022/01/23 06:11:40;;;;;;;10.40;5.88;;;13.70;2201.60;;;;;;5090316;28;20115;-56
2022/01/23 06:14:08;;;;;;;10.40;7.60;;;13.60;2201.60;;;;;;5090349;28;20059;-56
2022/01/23 06:16:38;;;;;;;10.27;7.32;;;13.60;2201.60;;;;;;5090080;28;20035;-56
2022/01/23 06:19:04;;;;;;;9.25;5.05;;;13.60;2201.60;;;;;;5090041;28;20492;-56
2022/01/23 06:21:30;;;;;;;10.38;5.43;;;13.50;2201.60;;;;;;5090356;28;20028;-58
2022/01/23 06:24:13;;;;;;;16.40;13.82;;;13.40;2201.60;;;;;;5090266;28;20035;-61
2022/01/23 06:26:42;;;;;;;11.05;7.85;;;13.40;2201.60;;;;;;5090481;28;20089;-56
2022/01/23 06:29:08;;;;;;;223.55;113.40;;;13.40;2201.60;;;;;;5090379;28;20028;-55
2022/01/23 06:31:33;;;;;;;480.95;207.20;;;13.40;2201.60;;;;;;5089933;28;20032;-57
2022/01/23 06:34:00;;;;;;;42.03;15.88;;;13.20;2201.60;;;;;;5089980;28;20033;-56
2022/01/23 06:36:26;;;;;;;14.75;9.20;;;13.20;2201.60;;;;;;5090823;28;20110;-56
2022/01/23 06:38:52;;;;;;;18.58;11.18;;;13.10;2201.60;;;;;;5094016;28;20030;-55
2022/01/23 06:41:18;;;;;;;11.02;8.50;;;13.00;2201.60;;;;;;5094337;28;20028;-57
2022/01/23 06:43:43;;;;;;;16.38;8.82;;;13.00;2201.60;;;;;;5093837;28;20081;-56
2022/01/23 06:46:09;;;;;;;17.08;8.35;;;12.90;2201.60;;;;;;5094140;28;20126;-56
2022/01/23 06:48:35;;;;;;;31.90;22.17;;;13.00;2201.60;;;;;;5093905;28;20032;-56
2022/01/23 06:51:01;;;;;;;20.90;14.25;;;0.00;2201.60;;;;;;5093836;28;20055;-57
2022/01/23 06:53:26;;;;;;;27.77;13.98;;;0.10;2201.60;;;;;;5094106;28;20016;-56
2022/01/23 06:55:52;;;;;;;71.55;35.10;;;0.20;2201.60;;;;;;5093696;28;20534;-56
2022/01/23 06:58:18;;;;;;;62.65;38.28;;;0.40;2201.60;;;;;;5093985;28;20024;-57
2022/01/23 07:00:44;;;;;;;49.67;26.85;;;0.40;2201.60;;;;;;5093883;28;20035;-56
2022/01/23 07:03:10;;;;;;;39.63;22.65;;;0.40;2201.60;;;;;;5093279;28;20048;-55
2022/01/23 07:05:36;;;;;;;35.78;25.88;;;0.50;2201.60;;;;;;5093968;28;20051;-56
2022/01/23 07:08:02;;;;;;;59.92;42.10;;;0.50;2201.60;;;;;;5093296;28;20466;-60
2022/01/23 07:10:28;;;;;;;48.17;31.88;;;0.50;2201.60;;;;;;5093629;28;20031;-60
2022/01/23 07:12:53;;;;;;;22.02;13.40;;;0.60;2201.60;;;;;;5093503;28;20035;-57
2022/01/23 07:15:19;;;;;;;48.22;26.27;;;0.70;2201.60;;;;;;5093426;28;20028;-57
2022/01/23 07:17:45;;;;;;;124.53;51.20;;;0.70;2201.60;;;;;;5093521;28;20103;-56
2022/01/23 07:20:11;;;;;;;45.53;24.85;;;0.70;2201.60;;;;;;5093307;28;20157;-57
2022/01/23 07:22:37;;;;;;;91.43;47.17;;;25.60;2201.60;;;;;;5093537;28;20099;-61
2022/01/23 07:25:05;;;;;;;85.05;39.58;;;25.80;2201.60;;;;;;5093373;28;20481;-59
2022/01/23 07:27:36;;;;;;;101.55;53.55;;;25.90;2201.60;;;;;;5093206;28;20031;-56
2022/01/23 07:30:05;;;;;;;44.35;21.80;;;26.00;2201.60;;;;;;5093057;28;20028;-56
2022/01/23 07:32:31;;;;;;;27.38;16.08;;;26.00;2201.60;;;;;;5092792;28;20024;-56
2022/01/23 07:34:56;;;;;;;31.17;17.85;;;26.20;2201.60;;;;;;5093584;28;20473;-56
2022/01/23 07:37:22;;;;;;;14.30;8.65;;;26.40;2201.60;;;;;;5092834;28;20024;-56
2022/01/23 07:39:48;;;;;;;41.17;25.83;;;26.50;2201.60;;;;;;5093228;28;20056;-56
2022/01/23 07:42:15;;;;;;;46.72;30.80;;;26.50;2201.60;;;;;;5093049;28;20380;-55
2022/01/23 07:44:40;;;;;;;22.13;16.27;;;26.50;2201.60;;;;;;5092767;28;20068;-56
2022/01/23 07:47:06;;;;;;;20.25;10.52;;;26.40;2201.60;;;;;;5092937;28;20028;-56
2022/01/23 07:49:33;;;;;;;14.40;7.90;;;26.40;2201.60;;;;;;5091744;28;20024;-56
2022/01/23 07:52:01;;;;;;;13.10;7.55;;;26.50;2201.60;;;;;;5092823;28;20024;-56
2022/01/23 07:54:26;;;;;;;15.98;7.22;;;26.40;2201.60;;;;;;5093089;28;20024;-58
2022/01/23 07:56:52;;;;;;;832.80;469.40;;;26.30;2201.60;;;;;;5092594;28;20027;-56
2022/01/23 07:59:18;;;;;;;100.68;31.42;;;26.50;2201.60;;;;;;5092685;28;20028;-54
2022/01/23 08:01:44;;;;;;;15.25;7.93;;;26.30;2201.60;;;;;;5092650;28;20028;-57
2022/01/23 08:04:10;;;;;;;20.00;13.15;;;26.20;2201.60;;;;;;5091857;28;20055;-56
2022/01/23 08:06:45;;;;;;;17.48;8.60;;;26.40;2201.60;;;;;;5092524;28;20089;-54
2022/01/23 08:09:11;;;;;;;11.00;6.55;;;26.40;2201.60;;;;;;5092480;28;20020;-56
2022/01/23 08:11:36;;;;;;;12.68;7.82;;;26.50;2201.60;;;;;;5092434;28;20504;-61
2022/01/23 08:14:03;;;;;;;30.20;14.27;;;26.50;2201.60;;;;;;5092246;28;20020;-56
2022/01/23 08:16:29;;;;;;;26.48;14.05;;;51.20;2227.20;;;;;;5092614;28;20028;-63
2022/01/23 08:18:54;;;;;;;19.63;8.68;;;51.20;2227.20;;;;;;5092519;28;20028;-60
2022/01/23 08:21:20;;;;;;;12.02;8.35;;;51.40;2227.20;;;;;;5091984;28;20028;-56
2022/01/23 08:23:46;;;;;;;13.00;8.60;;;51.60;2227.20;;;;;;5092349;28;20023;-56
2022/01/23 08:26:12;;;;;;;13.27;7.85;;;51.30;2227.20;;;;;;5091867;28;20062;-60
2022/01/23 08:28:37;;;;;;;20.95;12.82;;;51.40;2227.20;;;;;;5092205;28;20020;-56
2022/01/23 08:31:03;;;;;;;18.08;10.55;;;51.40;2227.20;;;;;;5091925;28;20028;-58
2022/01/23 08:33:29;;;;;;;19.50;9.23;;;51.30;2227.20;;;;;;5091799;28;20024;-57
2022/01/23 08:35:57;;;;;;;15.75;10.23;;;51.30;2227.20;;;;;;5092178;28;20020;-60
2022/01/23 08:38:24;;;;;;;26.70;14.05;;;51.60;2227.20;;;;;;5091752;28;20066;-59
2022/01/23 08:41:49;;;;;;;28.27;15.48;;;51.40;2227.20;;;;;;5091798;28;20114;-60
2022/01/23 08:43:48;;;;;;;40.33;22.90;;;51.40;2227.20;;;;;;5091866;28;20109;-58
2022/01/23 08:46:15;;;;;;;37.72;18.55;;;51.60;2227.20;;;;;;5091638;28;20398;-57
2022/01/23 08:48:41;;;;;;;71.90;37.70;;;51.50;2227.20;;;;;;5091585;28;20416;-60
2022/01/23 08:51:08;;;;;;;62.45;35.22;;;51.40;2227.20;;;;;;5091683;28;20537;-56
2022/01/23 08:53:34;;;;;;;72.18;42.65;;;51.60;2227.20;;;;;;5091515;28;20331;-56
2022/01/23 08:55:59;;;;;;;34.30;23.55;;;51.60;2227.20;;;;;;5091358;28;20024;-55
2022/01/23 08:58:26;;;;;;;44.25;25.67;;;51.70;2227.20;;;;;;5091360;28;20052;-59
2022/01/23 09:00:52;;;;;;;44.45;26.55;;;51.80;2227.20;;;;;;5091228;28;20387;-54
2022/01/23 09:03:18;;;;;;;85.40;53.67;;;51.90;2227.20;;;;;;5091272;28;20048;-55
2022/01/23 09:05:43;;;;;;;59.10;34.13;;;51.80;2227.20;;;;;;5091338;28;20439;-55
2022/01/23 09:08:09;;;;;;;26.98;14.57;;;51.90;2227.20;;;;;;5091019;28;20526;-55
2022/01/23 09:10:52;;;;;;;38.80;19.98;;;52.00;2227.20;;;;;;5091522;28;20028;-57
2022/01/23 09:16:13;;;;;;;20.27;13.52;;;77.00;2227.20;;;;;;5047840;28;20048;-54
2022/01/23 09:18:39;;;;;;;17.95;11.57;;;76.90;2227.20;;;;;;5048637;28;20029;-56
2022/01/23 09:21:05;;;;;;;21.17;11.65;;;77.10;2227.20;;;;;;5048624;28;20112;-57
2022/01/23 09:23:32;;;;;;;18.50;10.20;;;77.00;2227.20;;;;;;5048568;28;20032;-57
2022/01/23 09:26:00;;;;;;;12.45;6.65;;;77.10;2227.20;;;;;;5048580;28;20049;-58
2022/01/23 09:28:32;;;;;;;11.05;5.80;;;77.10;2227.20;;;;;;5048726;28;20071;-55
2022/01/23 09:30:59;;;;;;;12.43;6.15;;;77.00;2227.20;;;;;;5048848;28;20028;-55
2022/01/23 09:33:25;;;;;;;55.28;30.75;;;76.80;2227.20;;;;;;5048429;28;20075;-55
2022/01/23 09:35:51;;;;;;;12.10;6.65;;;51.90;2227.20;;;;;;5048311;28;20467;-55
2022/01/23 09:38:16;;;;;;;13.13;9.60;;;52.00;2227.20;;;;;;5048453;28;20033;-54
2022/01/23 09:40:42;;;;;;;15.73;9.32;;;52.00;2227.20;;;;;;5048101;28;20033;-56
2022/01/23 09:43:16;;;;;;;12.80;7.15;;;51.90;2227.20;;;;;;5048436;28;20036;-55
2022/01/23 09:45:46;;;;;;;12.57;6.75;;;51.90;2227.20;;;;;;5048028;28;20127;-56
2022/01/23 09:48:12;;;;;;;15.82;6.63;;;52.00;2227.20;;;;;;5048081;28;20032;-55
2022/01/23 09:50:38;;;;;;;15.25;7.45;;;52.00;2227.20;;;;;;5048238;28;20506;-55
2022/01/23 09:53:05;;;;;;;31.60;14.70;;;76.80;2227.20;;;;;;5063549;28;20386;-56
2022/01/23 09:55:32;;;;;;;26.08;14.65;;;76.80;2227.20;;;;;;5070056;28;20028;-55
2022/01/23 09:57:59;;;;;;;21.58;10.10;;;52.00;2227.20;;;;;;5070513;28;20162;-55
2022/01/23 10:00:28;;;;;;;13.48;9.20;;;76.90;2227.20;;;;;;5068356;28;20039;-54
2022/01/23 10:02:54;;;;;;;13.48;9.13;;;76.90;2227.20;;;;;;5068280;28;20060;-56
2022/01/23 10:05:20;;;;;;;18.55;11.95;;;76.90;2227.20;;;;;;5068509;28;20141;-57
2022/01/23 10:07:47;;;;;;;23.98;15.70;;;76.90;2227.20;;;;;;5068564;28;20138;-55
2022/01/23 10:10:17;;;;;;;26.80;15.15;;;76.90;2227.20;;;;;;5068181;28;20045;-56
2022/01/23 10:12:47;;;;;;;20.95;10.20;;;77.00;2227.20;;;;;;5067327;28;20029;-57
2022/01/23 10:15:13;;;;;;;49.58;26.10;;;76.90;2227.20;;;;;;5068458;28;20036;-56
2022/01/23 10:17:39;;;;;;;41.40;19.33;;;76.90;2227.20;;;;;;5068473;28;20024;-57
2022/01/23 10:20:08;;;;;;;39.95;16.92;;;77.00;2227.20;;;;;;5068516;28;20479;-57
2022/01/23 10:22:35;;;;;;;36.28;18.60;;;77.00;2227.20;;;;;;5068010;28;20045;-57
2022/01/23 10:25:24;;;;;;;21.73;13.63;;;77.00;2227.20;;;;;;5068044;28;20076;-57
2022/01/23 10:27:59;;;;;;;18.33;8.90;;;77.30;2201.60;;;;;;5067789;28;20119;-55
2022/01/23 10:30:28;;;;;;;17.20;10.65;;;77.40;2201.60;;;;;;5068401;28;20221;-56
2022/01/23 10:33:06;;;;;;;12.15;7.25;;;77.60;2201.60;;;;;;5068125;28;20432;-55
2022/01/23 10:35:33;;;;;;;11.50;7.47;;;77.30;2227.20;;;;;;5068198;28;20039;-57
2022/01/23 10:38:13;;;;;;;14.52;9.13;;;77.40;2227.20;;;;;;5068351;28;20429;-55
2022/01/23 10:40:48;;;;;;;19.88;12.88;;;77.50;2201.60;;;;;;5068023;28;20583;-56
2022/01/23 10:48:43;;;;;;;20.10;12.45;;;77.70;2201.60;;;;;;5068237;28;20077;-54
2022/01/23 10:51:35;;;;;;;81.53;43.92;;;102.40;2201.60;;;;;;5068157;28;20035;-56
2022/01/23 10:54:09;;;;;;;55.67;36.70;;;102.50;2150.40;;;;;;5067631;28;20028;-55
2022/01/23 10:56:57;;;;;;;24.50;15.00;;;102.50;2124.80;;;;;;5068357;28;20381;-54
2022/01/23 10:59:24;;;;;;;25.17;14.70;;;102.40;2124.80;;;;;;5067973;28;20434;-59
2022/01/23 11:02:09;;;;;;;25.77;14.13;;;102.60;2099.20;;;;;;5067779;28;20043;-56
2022/01/23 11:04:53;;;;;;;21.55;13.25;;;102.40;2099.20;;;;;;5067690;28;20079;-58
2022/01/23 11:07:20;;;;;;;32.25;18.08;;;102.70;2073.60;;;;;;5067021;28;20025;-57
2022/01/23 11:09:47;;;;;;;260.10;120.00;;;102.60;2073.60;;;;;;5068042;28;20131;-57
2022/01/23 11:18:10;;;;;;;11.45;8.30;;;77.70;2073.60;;;;;;5026848;28;20518;-55
2022/01/23 11:20:36;;;;;;;20.23;10.63;;;77.50;2124.80;;;;;;5038624;28;20033;-55
2022/01/23 11:23:23;;;;;;;18.27;11.20;;;77.70;2099.20;;;;;;5031851;28;20024;-55
2022/01/23 11:25:51;;;;;;;19.60;12.38;;;77.70;2099.20;;;;;;5039031;28;20595;-54
2022/01/23 11:28:17;;;;;;;16.15;10.35;;;102.50;2099.20;;;;;;5037862;28;20024;-54
2022/01/23 11:30:46;;;;;;;16.20;9.63;;;102.40;2073.60;;;;;;5038279;28;20029;-55
2022/01/23 11:33:18;;;;;;;16.75;10.50;;;102.50;2048.00;;;;;;5038938;28;20380;-57
2022/01/23 11:35:46;;;;;;;17.85;8.13;;;77.70;2099.20;;;;;;5036503;28;20422;-55
2022/01/23 11:38:16;;;;;;;14.15;7.85;;;77.60;2099.20;;;;;;5038238;28;20028;-55
2022/01/23 11:54:43;;;;;;;12.02;7.15;;;77.20;2150.40;;;;;;5070995;28;20094;-56
2022/01/23 11:57:37;;;;;;;9.63;4.78;;;77.20;2150.40;;;;;;5070659;28;20020;-54
2022/01/23 12:00:24;;;;;;;8.85;5.50;;;77.10;2150.40;;;;;;5070669;28;20111;-55
2022/01/23 12:03:10;;;;;;;12.75;7.25;;;77.20;2124.80;;;;;;5070140;28;20174;-57
2022/01/23 12:05:39;;;;;;;10.82;5.32;;;77.20;2124.80;;;;;;5070651;28;20106;-56
2022/01/23 12:08:17;;;;;;;31.52;15.13;;;77.20;2124.80;;;;;;5070530;28;20070;-56
2022/01/23 12:11:16;;;;;;;34.60;19.77;;;77.40;2124.80;;;;;;5070063;28;20032;-57
2022/01/23 12:16:27;;;;;;;35.25;18.08;;;77.50;2124.80;;;;;;5070424;28;20040;-56
2022/01/23 12:19:17;;;;;;;13.75;7.78;;;77.50;2124.80;;;;;;5070493;28;20115;-56
2022/01/23 12:21:42;;;;;;;14.73;8.18;;;77.40;2150.40;;;;;;5070061;28;20044;-54
2022/01/23 12:24:09;;;;;;;13.10;7.25;;;77.40;2150.40;;;;;;5069863;28;20126;-55
2022/01/23 12:26:35;;;;;;;10.63;5.25;;;77.30;2150.40;;;;;;5070294;28;20020;-56
2022/01/23 12:29:18;;;;;;;13.02;6.60;;;77.30;2176.00;;;;;;5070054;28;20033;-55
2022/01/23 12:31:45;;;;;;;14.75;8.05;;;77.50;2150.40;;;;;;5070395;28;20115;-56
2022/01/23 12:34:12;;;;;;;15.80;9.07;;;77.60;2150.40;;;;;;5069628;28;20033;-54
2022/01/23 12:36:40;;;;;;;12.60;6.57;;;77.70;2124.80;;;;;;5069782;28;20033;-55
2022/01/23 12:39:09;;;;;;;20.83;9.02;;;77.60;2124.80;;;;;;5069912;28;20028;-55
2022/01/23 12:41:47;;;;;;;13.93;7.22;;;77.50;2150.40;;;;;;5069938;28;20055;-56
2022/01/23 12:44:26;;;;;;;28.45;12.90;;;77.30;2150.40;;;;;;5069679;28;20078;-55
2022/01/23 12:46:52;;;;;;;14.05;7.32;;;77.40;2150.40;;;;;;5069822;28;20025;-56
2022/01/23 12:49:28;;;;;;;19.38;9.55;;;77.20;2150.40;;;;;;5069789;28;20024;-55
2022/01/23 12:52:16;;;;;;;9.25;6.60;;;77.40;2150.40;;;;;;5067803;28;20041;-54
2022/01/23 12:54:47;;;;;;;15.98;8.02;;;77.50;2124.80;;;;;;5069644;28;20029;-56
2022/01/23 12:57:39;;;;;;;18.02;8.63;;;77.30;2124.80;;;;;;5069436;28;20025;-55
2022/01/23 13:00:15;;;;;;;21.08;11.52;;;77.30;2124.80;;;;;;5069603;28;20111;-54
2022/01/23 13:02:46;;;;;;;54.55;29.08;;;77.40;2124.80;;;;;;5069015;28;20056;-55
2022/01/23 13:05:14;;;;;;;23.25;15.35;;;77.50;2150.40;;;;;;5069217;28;20132;-54
2022/01/23 13:08:00;;;;;;;15.77;9.70;;;77.50;2150.40;;;;;;5069299;28;20025;-55
2022/01/23 13:10:56;;;;;;;25.13;16.00;;;77.50;2150.40;;;;;;5069269;28;20029;-57
2022/01/23 13:19:17;;;;;;;15.73;9.07;;;77.30;2124.80;;;;;;5026966;28;20040;-55
2022/01/23 13:32:46;;;;;;;25.27;14.00;;;77.70;2124.80;;;;;;4967740;28;20035;-58
2022/01/23 13:35:15;;;;;;;57.17;29.35;;;102.40;2124.80;;;;;;4967608;28;20039;-55
2022/01/23 13:37:45;;;;;;;15.60;10.43;;;102.40;2124.80;;;;;;4967789;28;20394;-55
2022/01/23 13:40:14;;;;;;;25.70;15.25;;;102.50;2099.20;;;;;;4967605;28;20039;-55
2022/01/23 13:59:46;;;;;;;38.47;23.60;;;77.00;2150.40;;;;;;4986806;28;20084;-56
2022/01/23 14:02:20;;;;;;;34.05;19.85;;;77.10;2150.40;;;;;;4986652;28;20074;-55
2022/01/23 14:05:03;;;;;;;38.50;22.25;;;77.30;2176.00;;;;;;4986864;28;20076;-54
2022/01/23 14:07:30;;;;;;;;;;;76.90;2201.60;;;;;;5019816;28;20037;-55
2022/01/23 14:10:18;;;;;;;44.08;23.65;;;77.00;2201.60;;;;;;5045605;28;19921;-54
2022/01/23 14:12:49;;;;;;;39.75;21.88;;;77.00;2201.60;;;;;;4967352;28;20056;-55
2022/01/23 14:15:21;;;;;;;36.17;19.23;;;77.10;2176.00;;;;;;4967128;28;20102;-55
2022/01/23 14:18:08;;;;;;;24.75;14.57;;;77.20;2176.00;;;;;;4967310;28;20042;-56
2022/01/23 14:20:41;;;;;;;31.35;16.73;;;77.10;2201.60;;;;;;4967090;28;20043;-55
2022/01/23 14:23:14;;;;;;;24.13;14.68;;;76.90;2176.00;;;;;;4966926;28;20071;-56
2022/01/23 14:25:51;;;;;;;33.67;20.42;;;77.00;2176.00;;;;;;4967083;28;20482;-56
2022/01/23 14:28:22;;;;;;;38.05;20.67;;;77.00;2176.00;;;;;;4967131;28;20035;-54
2022/01/23 14:30:54;;;;;;;42.63;21.23;;;77.00;2201.60;;;;;;4967165;28;20035;-55
2022/01/23 14:33:33;;;;;;;47.42;22.50;;;77.00;2201.60;;;;;;4973861;28;20488;-55
2022/01/23 14:36:12;;;;;;;32.10;17.48;;;76.80;2201.60;;;;;;4986304;28;20045;-56
2022/01/23 14:38:38;;;;;;;26.60;14.00;;;76.80;2201.60;;;;;;4986500;28;20026;-54
2022/01/23 14:41:09;;;;;;;15.68;10.48;;;52.10;2201.60;;;;;;4986195;28;20034;-57
2022/01/23 14:43:40;;;;;;;25.10;14.38;;;52.00;2227.20;;;;;;4986607;28;20578;-57
2022/01/23 14:46:12;;;;;;;31.67;17.38;;;51.70;2227.20;;;;;;4986496;28;20113;-55
2022/01/23 14:48:46;;;;;;;18.98;10.20;;;51.80;2227.20;;;;;;4986187;28;20117;-54
2022/01/23 14:51:19;;;;;;;12.52;9.48;;;51.80;2227.20;;;;;;5067961;28;20024;-55
2022/01/23 14:53:47;;;;;;;18.50;9.20;;;52.00;2227.20;;;;;;5067976;28;20024;-54
2022/01/23 14:56:14;;;;;;;17.35;10.73;;;51.80;2227.20;;;;;;5067995;28;20098;-57
2022/01/23 14:58:41;;;;;;;18.33;10.20;;;51.80;2227.20;;;;;;5070606;28;20033;-54
2022/01/23 15:01:10;;;;;;;14.95;9.80;;;51.70;2227.20;;;;;;5071509;28;20025;-54
2022/01/23 15:03:36;;;;;;;11.75;7.97;;;51.60;2227.20;;;;;;5071626;28;20044;-54
2022/01/23 15:06:04;;;;;;;12.70;8.13;;;51.50;2227.20;;;;;;5071478;28;20094;-56
2022/01/23 15:08:31;;;;;;;13.68;8.30;;;51.50;2227.20;;;;;;5071801;28;20367;-53
2022/01/23 15:10:59;;;;;;;12.63;8.60;;;51.40;2227.20;;;;;;5071971;28;20025;-53
2022/01/23 15:13:26;;;;;;;22.73;11.63;;;51.30;2227.20;;;;;;5071693;28;20386;-55
2022/01/23 15:15:53;;;;;;;27.05;14.73;;;51.20;2227.20;;;;;;5071611;28;20101;-55
2022/01/23 15:18:20;;;;;;;29.45;18.60;;;51.20;2227.20;;;;;;5071409;28;20028;-55
2022/01/23 15:20:46;;;;;;;28.95;17.00;;;26.50;2201.60;;;;;;5071450;28;20032;-56
2022/01/23 15:23:13;;;;;;;39.63;22.25;;;51.30;2227.20;;;;;;5071027;28;20120;-56
2022/01/23 15:25:41;;;;;;;58.45;30.95;;;26.50;2201.60;;;;;;5071273;28;20037;-56
2022/01/23 15:28:07;;;;;;;98.50;53.63;;;26.50;2201.60;;;;;;5071015;28;20020;-56
2022/01/23 15:30:36;;;;;;;64.10;34.67;;;51.30;2227.20;;;;;;5071350;28;20032;-58
2022/01/23 15:33:03;;;;;;;59.97;35.75;;;26.50;2201.60;;;;;;5071090;28;20045;-57
2022/01/23 15:35:30;;;;;;;59.85;30.13;;;26.50;2201.60;;;;;;5071401;28;20036;-56
2022/01/23 15:37:55;;;;;;;50.33;30.17;;;26.30;2201.60;;;;;;5071245;28;20032;-56
2022/01/23 15:40:23;;;;;;;42.78;24.30;;;26.30;2201.60;;;;;;5070587;28;20029;-55
2022/01/23 15:42:51;;;;;;;42.35;24.48;;;26.50;2201.60;;;;;;5071412;28;20036;-56
2022/01/23 15:45:19;;;;;;;40.85;22.33;;;26.50;2201.60;;;;;;5071017;28;20028;-57
2022/01/23 15:47:45;;;;;;;54.10;28.92;;;26.50;2201.60;;;;;;5071145;28;20024;-55
2022/01/23 15:50:14;;;;;;;49.53;29.30;;;26.50;2201.60;;;;;;5070863;28;20474;-58
2022/01/23 15:52:40;;;;;;;65.95;37.35;;;26.50;2201.60;;;;;;5070395;28;20107;-57